createdAt,value
2022-08-14T00:01:55.413Z,93245.35
2022-08-14T00:07:03.519Z,93249.33
2022-08-14T00:12:24.378Z,93231.81
2022-08-14T00:17:24.543Z,93228.28
2022-08-14T00:22:56.873Z,93230.48
2022-08-14T00:27:44.062Z,93216.39
2022-08-14T00:32:56.291Z,93208.62
2022-08-14T00:38:03.933Z,93211.14
2022-08-14T00:43:12.756Z,93205.86
2022-08-14T00:48:34.654Z,93205.23
2022-08-14T00:53:33.267Z,93203.95
2022-08-14T00:58:45.288Z,93202.30
2022-08-14T01:03:52.960Z,93197.58
2022-08-14T01:09:03.750Z,93196.40
2022-08-14T01:14:25.471Z,93193.79
2022-08-14T01:19:38.375Z,93196.77
2022-08-14T01:24:47.503Z,93194.50
2022-08-14T01:30:03.265Z,93195.38
2022-08-14T01:35:17.179Z,93194.75
2022-08-14T01:40:20.027Z,93191.67
2022-08-14T01:45:27.380Z,93187.48
2022-08-14T01:50:35.222Z,93183.62
2022-08-14T01:55:43.952Z,93187.25
2022-08-14T02:00:57.090Z,93188.36
2022-08-14T02:06:32.098Z,93186.98
2022-08-14T02:11:20.733Z,93192.74
2022-08-14T02:16:33.723Z,93189.84
2022-08-14T02:21:48.812Z,93192.28
2022-08-14T02:28:26.019Z,93180.87
2022-08-14T02:32:11.328Z,93184.56
2022-08-14T02:37:20.893Z,93175.34
2022-08-14T02:42:37.210Z,93175.70
2022-08-14T02:47:40.319Z,93179.41
2022-08-14T02:52:57.913Z,93173.45
2022-08-14T02:58:03.497Z,93168.13
2022-08-14T03:03:06.397Z,93168.70
2022-08-14T03:08:18.963Z,93168.23
2022-08-14T03:13:27.488Z,93161.95
2022-08-14T03:18:38.604Z,93153.50
2022-08-14T03:23:49.778Z,93162.83
2022-08-14T03:29:02.026Z,93161.84
2022-08-14T03:34:24.233Z,93159.45
2022-08-14T03:39:24.186Z,93165.78
2022-08-14T03:45:27.449Z,93162.68
2022-08-14T03:49:46.005Z,93166.70
2022-08-14T03:54:52.910Z,93159.26
2022-08-14T04:00:01.997Z,93159.26
2022-08-14T04:05:13.155Z,93159.17
2022-08-14T04:10:31.688Z,93159.91
2022-08-14T04:15:30.437Z,93161.90
2022-08-14T04:20:40.778Z,93166.70
2022-08-14T04:25:51.553Z,93153.63
2022-08-14T04:30:59.450Z,93154.42
2022-08-14T04:36:07.722Z,93152.86
2022-08-14T04:41:35.404Z,93147.86
2022-08-14T04:46:55.856Z,93147.27
2022-08-14T04:51:55.759Z,93150.59
2022-08-14T04:57:03.045Z,93152.62
2022-08-14T05:02:10.686Z,93156.64
2022-08-14T05:07:19.599Z,93150.77
2022-08-14T05:13:13.234Z,93148.78
2022-08-14T05:17:54.009Z,93142.64
2022-08-14T05:22:56.354Z,93138.30
2022-08-14T05:28:35.087Z,93131.56
2022-08-14T05:33:43.619Z,93135.94
2022-08-14T05:38:55.849Z,93136.16
2022-08-14T05:44:02.643Z,93139.34
2022-08-14T05:49:11.690Z,93150.25
2022-08-14T05:54:26.900Z,93130.50
2022-08-14T05:59:36.676Z,93128.21
2022-08-14T06:04:38.990Z,93123.80
2022-08-14T06:09:52.317Z,93112.34
2022-08-14T06:14:56.217Z,93122.64
2022-08-14T06:20:05.531Z,93120.52
2022-08-14T06:25:18.465Z,93109.83
2022-08-14T06:30:45.822Z,93121.72
2022-08-14T06:35:41.505Z,93117.38
2022-08-14T06:40:49.475Z,93112.61
2022-08-14T06:46:00.463Z,93113.81
2022-08-14T06:51:08.847Z,93110.54
2022-08-14T06:56:18.275Z,93105.63
2022-08-14T07:01:45.586Z,93107.75
2022-08-14T07:06:58.997Z,93114.62
2022-08-14T07:12:05.850Z,93118.00
2022-08-14T07:17:14.387Z,93115.78
2022-08-14T07:22:23.520Z,93113.88
2022-08-14T07:27:33.605Z,93118.23
2022-08-14T07:32:39.022Z,93111.94
2022-08-14T07:37:55.199Z,93119.59
2022-08-14T07:43:14.712Z,93112.70
2022-08-14T07:48:24.897Z,93117.72
2022-08-14T07:53:36.718Z,93122.62
2022-08-14T07:58:51.572Z,93120.44
2022-08-14T08:03:59.401Z,93119.11
2022-08-14T08:09:07.959Z,93118.25
2022-08-14T08:14:19.210Z,93118.73
2022-08-14T08:19:28.010Z,93127.13
2022-08-14T08:24:39.204Z,93126.54
2022-08-14T08:29:51.540Z,93126.04
2022-08-14T08:35:02.562Z,93129.88
2022-08-14T08:40:20.777Z,93127.02
2022-08-14T08:45:25.318Z,93126.52
2022-08-14T08:55:49.851Z,93117.41
2022-08-14T09:01:04.831Z,93119.34
2022-08-14T09:06:54.428Z,93104.86
2022-08-14T09:11:24.575Z,93095.44
2022-08-14T09:16:37.101Z,93095.89
2022-08-14T09:21:48.195Z,93088.09
2022-08-14T09:26:57.034Z,93086.03
2022-08-14T09:32:10.164Z,93098.24
2022-08-14T09:37:37.393Z,93091.59
2022-08-14T09:43:03.367Z,93083.18
2022-08-14T09:48:27.401Z,93088.10
2022-08-14T09:54:13.441Z,93083.67
2022-08-14T09:58:50.396Z,93083.19
2022-08-14T10:04:01.803Z,93084.23
2022-08-14T10:09:12.032Z,93088.39
2022-08-14T10:14:29.147Z,93077.58
2022-08-14T10:19:31.385Z,93074.38
2022-08-14T10:24:47.114Z,93071.33
2022-08-14T10:30:01.977Z,93070.45
2022-08-14T10:35:15.153Z,93067.16
2022-08-14T10:40:38.855Z,93054.90
2022-08-14T10:45:46.335Z,93060.98
2022-08-14T10:50:53.585Z,93063.30
2022-08-14T10:56:06.990Z,93062.71
2022-08-14T11:01:17.359Z,93056.77
2022-08-14T11:06:27.295Z,93044.41
2022-08-14T11:11:37.295Z,93051.84
2022-08-14T11:16:49.011Z,93049.75
2022-08-14T11:22:00.202Z,93040.48
2022-08-14T11:27:10.159Z,93040.20
2022-08-14T11:32:20.652Z,93032.23
2022-08-14T11:37:40.589Z,93031.36
2022-08-14T11:42:56.327Z,93035.73
2022-08-14T11:48:12.668Z,93036.06
2022-08-14T11:53:04.676Z,93039.40
2022-08-14T11:58:24.370Z,93042.30
2022-08-14T12:03:51.749Z,93034.16
2022-08-14T12:08:55.645Z,93031.80
2022-08-14T12:14:29.093Z,93033.21
2022-08-14T12:19:21.788Z,93029.88
2022-08-14T12:24:36.822Z,93013.95
2022-08-14T12:29:45.313Z,93014.84
2022-08-14T12:34:58.533Z,93002.28
2022-08-14T12:40:21.716Z,92998.08
2022-08-14T12:45:38.985Z,92997.45
2022-08-14T12:50:50.118Z,92991.58
2022-08-14T12:56:22.440Z,92990.22
2022-08-14T13:01:26.428Z,92987.26
2022-08-14T13:06:37.372Z,92979.45
2022-08-14T13:11:59.087Z,92970.55
2022-08-14T13:17:11.522Z,92965.37
2022-08-14T13:22:32.083Z,92963.34
2022-08-14T13:27:40.546Z,92952.58
2022-08-14T13:32:52.093Z,92942.92
2022-08-14T13:38:01.352Z,92934.73
2022-08-14T13:43:13.640Z,92928.17
2022-08-14T13:48:33.187Z,92924.59
2022-08-14T13:53:52.595Z,92918.86
2022-08-14T13:58:55.623Z,92910.31
2022-08-14T14:04:11.350Z,92914.98
2022-08-14T14:09:51.031Z,92909.34
2022-08-14T14:14:51.828Z,92904.22
2022-08-14T14:20:02.994Z,92907.23
2022-08-14T14:25:15.339Z,92902.47
2022-08-14T14:30:52.126Z,92898.97
2022-08-14T14:35:39.573Z,92899.97
2022-08-14T14:40:56.922Z,92897.41
2022-08-14T14:46:07.261Z,92896.43
2022-08-14T14:51:12.541Z,92900.99
2022-08-14T14:56:51.278Z,92891.19
2022-08-14T15:01:31.029Z,92892.02
2022-08-14T15:06:47.698Z,92890.61
2022-08-14T15:11:50.816Z,92890.57
2022-08-14T15:17:00.654Z,92886.96
2022-08-14T15:22:12.058Z,92883.77
2022-08-14T15:27:21.419Z,92883.45
2022-08-14T15:32:29.893Z,92882.42
2022-08-14T15:37:42.105Z,92880.08
2022-08-14T15:42:50.959Z,92877.67
2022-08-14T15:48:02.723Z,92875.35
2022-08-14T15:53:12.392Z,92876.44
2022-08-14T15:58:25.648Z,92883.89
2022-08-14T16:03:40.885Z,92882.23
2022-08-14T16:08:58.991Z,92873.76
2022-08-14T16:14:00.142Z,92864.86
2022-08-14T16:19:11.422Z,92859.04
2022-08-14T16:24:27.037Z,92861.75
2022-08-14T16:29:34.863Z,92863.80
2022-08-14T16:34:47.884Z,92864.09
2022-08-14T16:39:54.039Z,92864.72
2022-08-14T16:45:04.574Z,92859.30
2022-08-14T16:50:13.327Z,92857.43
2022-08-14T16:55:30.276Z,92854.92
2022-08-14T17:00:49.643Z,92851.31
2022-08-14T17:05:49.565Z,92845.23
2022-08-14T17:11:04.683Z,92837.30
2022-08-14T17:16:25.048Z,92837.45
2022-08-14T17:21:34.136Z,92832.30
2022-08-14T17:26:55.004Z,92838.95
2022-08-14T17:32:28.269Z,92838.92
2022-08-14T17:37:45.089Z,92834.56
2022-08-14T17:43:03.362Z,92831.98
2022-08-14T17:49:16.015Z,92843.91
2022-08-14T17:53:53.512Z,92846.84
2022-08-14T17:59:19.927Z,92847.49
2022-08-14T18:04:44.165Z,92858.11
2022-08-14T18:09:59.983Z,92858.66
2022-08-14T18:15:36.841Z,92869.39
2022-08-14T18:21:41.814Z,92852.69
2022-08-14T18:25:56.001Z,92882.38
2022-08-14T18:31:27.690Z,92884.42
2022-08-14T18:37:00.415Z,92894.23
2022-08-14T18:42:24.403Z,92897.14
2022-08-14T18:48:03.549Z,92905.34
2022-08-14T18:52:52.331Z,92905.91
2022-08-14T18:58:20.795Z,92916.08
2022-08-14T19:03:43.293Z,92922.83
2022-08-14T19:08:55.364Z,92921.69
2022-08-14T19:14:07.539Z,92922.19
2022-08-14T19:19:17.104Z,92921.55
2022-08-14T19:24:45.258Z,92913.61
2022-08-14T19:29:54.964Z,92916.86
2022-08-14T19:35:16.722Z,92922.27
2022-08-14T19:40:15.640Z,92923.41
2022-08-14T19:45:24.259Z,92930.08
2022-08-14T19:50:38.440Z,92934.36
2022-08-14T19:55:45.467Z,92934.86
2022-08-14T20:01:00.371Z,92944.66
2022-08-14T20:06:10.908Z,92941.44
2022-08-14T20:11:43.504Z,92940.52
2022-08-14T20:16:50.649Z,92937.32
2022-08-14T20:22:36.609Z,92933.58
2022-08-14T20:27:37.977Z,92936.25
2022-08-14T20:32:59.205Z,92928.77
2022-08-14T20:38:29.369Z,92931.52
2022-08-14T20:44:06.332Z,92928.38
2022-08-14T20:49:18.830Z,92927.44
2022-08-14T20:54:36.852Z,92924.17
2022-08-14T20:59:57.387Z,92923.83
2022-08-14T21:05:19.602Z,92924.42
2022-08-14T21:10:33.548Z,92922.73
2022-08-14T21:15:40.673Z,92913.41
2022-08-14T21:20:49.342Z,92909.25
2022-08-14T21:25:58.228Z,92899.46
2022-08-14T21:31:09.085Z,92898.05
2022-08-14T21:36:21.072Z,92893.98
2022-08-14T21:41:42.463Z,92901.12
2022-08-14T21:46:49.284Z,92907.06
2022-08-14T21:52:51.141Z,92911.55
2022-08-14T21:58:51.288Z,92902.23
2022-08-14T22:02:37.196Z,92906.45
2022-08-14T22:07:46.414Z,92914.82
2022-08-14T22:13:00.644Z,92906.28
2022-08-14T22:18:05.554Z,92907.91
2022-08-14T22:23:19.148Z,92908.62
2022-08-14T22:28:32.656Z,92913.16
2022-08-14T22:33:43.139Z,92914.45
2022-08-14T22:38:50.521Z,92903.20
2022-08-14T22:44:07.050Z,92898.47
2022-08-14T22:50:29.526Z,92876.10
2022-08-14T22:54:52.566Z,92873.91
2022-08-14T22:59:39.874Z,92883.16
2022-08-14T23:04:55.330Z,92874.62
2022-08-14T23:10:34.093Z,92880.89
2022-08-14T23:15:13.709Z,92885.04
2022-08-14T23:20:29.110Z,92884.84
2022-08-14T23:25:59.023Z,92888.53
2022-08-14T23:30:49.994Z,92879.84
2022-08-14T23:36:01.417Z,92875.02
2022-08-14T23:41:16.878Z,92870.06
2022-08-14T23:46:34.551Z,92868.30
2022-08-14T23:51:39.638Z,92863.95
2022-08-14T23:56:48.915Z,92855.22
